Time;durP1;ratioP1;P1;durP2;ratioP2;P2;SDS_P1;SDS_P2;PMS_P1;PMS_P2;Temp;Humidity;BMP_temperature;BMP_pressure;BME280_temperature;BME280_humidity;BME280_pressure;Samples;Min_cycle;Max_cycle;Signal;HPM_P1;HPM_P2
2021/05/30 07:33:13;;;;;;;19.80;16.60;;;16.70;99.90;;;;;;6121461;23;20098;-91
2021/05/30 07:35:40;;;;;;;18.83;16.55;;;16.60;99.90;;;;;;6147328;23;20053;-90
2021/05/30 07:38:07;;;;;;;18.67;16.65;;;16.60;99.90;;;;;;6146196;23;20461;-91
2021/05/30 07:40:34;;;;;;;18.67;16.67;;;16.70;99.90;;;;;;6147404;23;20492;-90
2021/05/30 07:43:02;;;;;;;20.15;16.58;;;16.70;99.90;;;;;;6123895;23;20010;-89
2021/05/30 07:45:29;;;;;;;18.58;15.60;;;16.80;99.90;;;;;;6146532;23;20014;-92
2021/05/30 07:47:58;;;;;;;18.40;16.20;;;16.90;99.90;;;;;;6146622;23;20021;-89
2021/05/30 07:50:25;;;;;;;18.55;14.77;;;17.00;99.90;;;;;;6146674;23;20092;-90
2021/05/30 07:52:52;;;;;;;18.52;15.00;;;17.00;99.90;;;;;;6146790;23;20086;-90
2021/05/30 07:55:20;;;;;;;18.25;15.63;;;17.00;99.90;;;;;;6144766;23;20097;-90
2021/05/30 07:57:47;;;;;;;19.48;14.82;;;17.10;99.90;;;;;;6146119;23;20018;-91
2021/05/30 08:00:17;;;;;;;19.60;14.77;;;17.10;99.90;;;;;;6145870;23;20069;-86
2021/05/30 08:02:45;;;;;;;19.63;15.38;;;17.20;99.90;;;;;;6145789;23;20076;-92
2021/05/30 08:05:17;;;;;;;19.77;15.10;;;17.20;99.90;;;;;;6149897;23;20070;-90
2021/05/30 08:07:45;;;;;;;16.27;14.60;;;17.40;99.90;;;;;;6146846;23;20018;-91
2021/05/30 08:10:14;;;;;;;17.98;14.65;;;17.50;99.90;;;;;;6146455;23;20025;-89
2021/05/30 08:12:41;;;;;;;18.55;15.13;;;17.60;99.90;;;;;;6123500;23;20029;-89
2021/05/30 08:15:10;;;;;;;15.43;13.33;;;17.70;99.90;;;;;;6146489;23;20018;-92
2021/05/30 08:17:38;;;;;;;18.42;13.77;;;17.80;99.90;;;;;;6121892;23;20029;-92
2021/05/30 08:20:08;;;;;;;16.10;14.25;;;18.00;99.90;;;;;;6146423;23;20026;-93
2021/05/30 08:22:35;;;;;;;14.80;13.23;;;18.20;99.90;;;;;;6145815;23;20077;-92
2021/05/30 08:25:04;;;;;;;15.50;13.20;;;18.40;99.90;;;;;;6146442;23;20021;-91
2021/05/30 08:27:31;;;;;;;16.55;12.43;;;18.50;99.90;;;;;;6144923;23;20034;-92
2021/05/30 08:29:58;;;;;;;14.35;11.82;;;18.70;99.90;;;;;;6145400;23;20073;-91
2021/05/30 08:32:25;;;;;;;13.27;11.82;;;18.80;99.90;;;;;;6145652;23;20077;-90
2021/05/30 08:34:52;;;;;;;12.90;11.02;;;19.00;99.90;;;;;;6146567;23;20025;-92
2021/05/30 08:37:19;;;;;;;14.27;10.95;;;19.20;99.90;;;;;;6146626;23;20026;-92
2021/05/30 08:39:47;;;;;;;11.23;10.13;;;19.40;99.90;;;;;;6146823;23;20457;-94
2021/05/30 08:42:18;;;;;;;11.17;9.97;;;19.60;99.90;;;;;;6145507;23;20026;-91
2021/05/30 08:44:46;;;;;;;11.50;8.88;;;19.80;99.90;;;;;;6145043;23;20089;-89
2021/05/30 08:47:12;;;;;;;10.20;8.40;;;19.90;99.90;;;;;;6119101;23;20354;-92
2021/05/30 08:49:40;;;;;;;11.05;8.18;;;20.10;99.90;;;;;;6146174;23;20025;-91
2021/05/30 08:52:08;;;;;;;11.60;8.60;;;20.30;99.90;;;;;;6145258;23;20018;-91
2021/05/30 08:54:35;;;;;;;10.13;7.88;;;20.50;99.90;;;;;;6122254;23;20022;-91
2021/05/30 08:57:03;;;;;;;9.25;7.53;;;20.60;99.90;;;;;;6122126;23;20473;-91
2021/05/30 08:59:32;;;;;;;10.85;7.82;;;20.70;99.90;;;;;;6146014;23;20536;-91
2021/05/30 09:02:10;;;;;;;12.93;7.70;;;20.90;99.90;;;;;;6146236;23;20093;-92
2021/05/30 09:04:43;;;;;;;9.52;6.90;;;21.00;99.90;;;;;;6120984;23;20444;-92
2021/05/30 09:07:10;;;;;;;9.05;6.35;;;21.20;99.90;;;;;;6146362;23;20025;-91
2021/05/30 09:09:39;;;;;;;8.27;6.40;;;21.30;99.90;;;;;;6146724;23;20018;-90
2021/05/30 09:12:25;;;;;;;10.32;6.63;;;21.40;99.90;;;;;;6144866;23;20437;-89
2021/05/30 09:14:55;;;;;;;10.23;6.40;;;21.60;99.90;;;;;;6146286;23;20021;-91
2021/05/30 09:17:27;;;;;;;6.97;5.40;;;21.70;99.90;;;;;;6143992;23;20080;-93
2021/05/30 09:19:58;;;;;;;7.47;5.20;;;21.80;99.90;;;;;;6146688;23;20501;-92
2021/05/30 09:22:39;;;;;;;7.80;5.68;;;21.90;99.90;;;;;;6146522;23;20031;-93
2021/05/30 09:25:11;;;;;;;7.70;5.00;;;22.00;99.90;;;;;;6146397;23;20057;-93
2021/05/30 09:28:01;;;;;;;9.40;5.38;;;22.20;99.90;;;;;;6122411;23;20096;-92
2021/05/30 09:30:42;;;;;;;6.72;4.63;;;22.30;99.90;;;;;;6146015;23;20085;-91
2021/05/30 09:33:14;;;;;;;7.80;4.20;;;22.40;99.90;;;;;;6147119;23;20076;-91
2021/05/30 09:35:41;;;;;;;6.22;4.03;;;22.50;99.90;;;;;;6145241;23;20014;-93
2021/05/30 09:38:15;;;;;;;6.80;4.10;;;22.60;99.90;;;;;;6121753;23;20080;-92
2021/05/30 09:40:45;;;;;;;8.50;4.45;;;22.70;99.90;;;;;;6147057;23;20021;-89
2021/05/30 09:43:15;;;;;;;5.97;2.97;;;22.80;99.90;;;;;;6145756;23;20089;-89
2021/05/30 09:46:01;;;;;;;3.88;2.30;;;23.00;99.90;;;;;;6145935;23;20085;-91
2021/05/30 09:48:29;;;;;;;18.90;5.95;;;23.10;99.90;;;;;;6144775;23;20093;-90
2021/05/30 09:51:06;;;;;;;4.95;2.45;;;23.20;99.90;;;;;;6146204;23;20081;-91
2021/05/30 09:53:42;;;;;;;4.97;2.35;;;23.30;99.90;;;;;;6123780;23;20018;-92
2021/05/30 09:56:28;;;;;;;2.95;1.70;;;23.40;99.90;;;;;;6121874;23;20458;-92
2021/05/30 09:58:56;;;;;;;3.20;2.00;;;23.50;99.90;;;;;;6145485;23;20022;-91
2021/05/30 10:01:27;;;;;;;2.17;1.83;;;23.60;99.90;;;;;;6121335;23;20089;-88
2021/05/30 10:04:13;;;;;;;3.72;1.92;;;23.60;99.90;;;;;;6109662;23;20017;-89
2021/05/30 10:06:47;;;;;;;3.38;2.40;;;23.70;99.70;;;;;;6107438;23;20076;-90
2021/05/30 10:09:17;;;;;;;1.80;1.60;;;23.90;99.70;;;;;;6144815;23;20025;-89
2021/05/30 10:11:44;;;;;;;2.70;1.75;;;23.90;99.40;;;;;;6112693;23;20017;-87
2021/05/30 10:14:33;;;;;;;2.00;1.90;;;24.00;98.70;;;;;;6086673;23;20021;-93
2021/05/30 10:17:19;;;;;;;4.45;1.83;;;24.10;97.00;;;;;;6003623;23;20028;-91
2021/05/30 10:19:51;;;;;;;2.72;1.60;;;24.10;97.60;;;;;;6132897;23;20085;-90
2021/05/30 10:22:49;;;;;;;2.75;1.80;;;24.20;97.60;;;;;;6135112;23;20036;-93
2021/05/30 10:25:26;;;;;;;3.10;1.70;;;24.20;97.70;;;;;;6038572;23;20018;-90
2021/05/30 10:28:12;;;;;;;4.03;1.63;;;24.30;97.50;;;;;;6133489;23;20024;-90
2021/05/30 10:31:10;;;;;;;2.55;1.65;;;24.40;97.00;;;;;;6136720;23;20028;-90
2021/05/30 10:33:38;;;;;;;4.65;1.65;;;24.40;95.90;;;;;;6175535;23;20030;-88
2021/05/30 10:36:12;;;;;;;4.60;2.28;;;24.40;95.50;;;;;;6174664;23;20026;-90
2021/05/30 10:38:47;;;;;;;2.95;2.22;;;24.30;94.60;;;;;;6176015;23;20017;-89
2021/05/30 10:41:26;;;;;;;6.85;2.38;;;24.30;94.70;;;;;;6175012;23;20044;-91
2021/05/30 10:44:06;;;;;;;4.28;2.25;;;24.40;95.80;;;;;;6125699;23;20353;-90
2021/05/30 10:46:54;;;;;;;2.55;1.98;;;24.40;96.20;;;;;;6140734;23;20026;-91
2021/05/30 10:49:56;;;;;;;3.97;1.83;;;24.50;96.00;;;;;;6165959;23;20033;-91
2021/05/30 10:52:42;;;;;;;2.38;1.90;;;24.50;94.50;;;;;;6086574;23;20024;-91
2021/05/30 10:55:23;;;;;;;4.28;1.83;;;24.30;94.70;;;;;;6122347;23;20096;-91
2021/05/30 10:57:53;;;;;;;3.13;1.60;;;24.30;95.20;;;;;;6137371;23;20020;-89
2021/05/30 11:01:24;;;;;;;2.22;1.60;;;24.30;95.30;;;;;;6108058;23;20025;-92
2021/05/30 11:04:32;;;;;;;2.85;1.80;;;24.40;94.20;;;;;;6046531;23;20037;-92
2021/05/30 11:07:26;;;;;;;4.25;2.25;;;24.40;94.50;;;;;;6066666;23;20363;-90
2021/05/30 11:10:02;;;;;;;2.25;1.60;;;24.50;94.60;;;;;;6087952;23;20509;-93
2021/05/30 11:12:59;;;;;;;2.90;1.90;;;24.60;93.20;;;;;;6066150;23;20377;-92
2021/05/30 11:15:28;;;;;;;3.33;1.65;;;24.70;92.50;;;;;;6047024;23;20139;-91
2021/05/30 11:17:58;;;;;;;4.15;1.80;;;24.70;92.70;;;;;;6065203;23;20081;-90
2021/05/30 11:20:38;;;;;;;2.42;1.65;;;24.80;93.10;;;;;;6065426;23;20030;-90
2021/05/30 11:23:18;;;;;;;2.17;1.70;;;24.90;92.20;;;;;;6067257;23;20019;-90
2021/05/30 11:25:54;;;;;;;3.42;1.63;;;24.90;91.90;;;;;;6067516;23;20075;-88
2021/05/30 11:28:23;;;;;;;2.40;1.73;;;25.10;91.40;;;;;;6091502;23;20058;-92
2021/05/30 11:30:58;;;;;;;1.80;1.52;;;25.20;91.60;;;;;;6091166;23;20719;-91
2021/05/30 11:33:25;;;;;;;1.83;1.33;;;25.20;91.10;;;;;;6100130;23;20029;-91
2021/05/30 11:35:56;;;;;;;2.97;1.50;;;25.40;90.80;;;;;;6152319;23;20021;-94
2021/05/30 11:38:56;;;;;;;2.25;1.50;;;25.40;90.60;;;;;;6149943;23;20088;-93
2021/05/30 11:41:42;;;;;;;2.50;1.40;;;25.50;90.00;;;;;;6175677;23;20021;-93
2021/05/30 11:44:18;;;;;;;3.42;1.50;;;25.50;90.30;;;;;;6152129;23;20025;-93
2021/05/30 11:46:51;;;;;;;;;;;25.60;90.40;;;;;;6151844;23;20017;-92
2021/05/30 11:49:24;;;;;;;2.17;1.80;;;25.70;90.40;;;;;;6151513;23;19974;-92
2021/05/30 11:52:07;;;;;;;3.38;1.80;;;25.70;90.50;;;;;;6177064;23;20017;-92
2021/05/30 11:54:54;;;;;;;3.88;3.47;;;25.70;90.40;;;;;;6151742;23;20033;-93
2021/05/30 11:57:26;;;;;;;3.97;1.55;;;25.60;90.10;;;;;;6151671;23;20746;-93
2021/05/30 11:59:55;;;;;;;2.63;1.30;;;25.50;90.40;;;;;;6153663;23;20010;-94
2021/05/30 12:02:27;;;;;;;1.83;1.70;;;25.40;90.40;;;;;;6176316;23;20017;-93
2021/05/30 12:05:01;;;;;;;2.88;1.70;;;25.30;89.80;;;;;;6151862;23;20021;-93
2021/05/30 12:07:28;;;;;;;4.15;1.30;;;25.20;89.50;;;;;;6175061;23;20110;-93
2021/05/30 12:09:59;;;;;;;1.85;1.50;;;25.20;90.00;;;;;;6151900;23;20022;-92
2021/05/30 12:12:36;;;;;;;2.15;1.63;;;25.10;89.40;;;;;;6176112;23;20028;-93
2021/05/30 12:15:18;;;;;;;2.78;1.35;;;25.00;89.10;;;;;;6175662;23;20025;-92
2021/05/30 12:17:54;;;;;;;3.38;1.45;;;25.00;87.00;;;;;;6151623;23;20077;-92
2021/05/30 12:20:30;;;;;;;1.85;1.40;;;24.90;89.10;;;;;;6150752;23;20133;-94
2021/05/30 12:23:14;;;;;;;2.08;1.55;;;24.90;89.80;;;;;;6176007;23;20080;-94
2021/05/30 12:26:10;;;;;;;2.70;1.58;;;24.90;90.10;;;;;;6152389;23;20064;-93
2021/05/30 12:28:41;;;;;;;4.18;1.40;;;24.90;89.60;;;;;;6127462;23;20053;-93
2021/05/30 12:31:17;;;;;;;2.35;1.42;;;24.90;88.80;;;;;;6151288;23;20018;-92
2021/05/30 12:33:52;;;;;;;2.28;1.70;;;24.90;90.30;;;;;;6177419;23;20048;-92
2021/05/30 12:36:44;;;;;;;2.40;1.75;;;25.00;89.20;;;;;;6176146;23;20021;-93
2021/05/30 12:39:11;;;;;;;2.03;1.48;;;25.00;90.40;;;;;;6176369;23;20017;-93
2021/05/30 12:41:40;;;;;;;2.03;1.50;;;25.00;90.00;;;;;;6152075;23;20025;-95
2021/05/30 12:44:10;;;;;;;2.10;1.70;;;24.80;89.20;;;;;;6174860;23;20021;-94
2021/05/30 12:46:39;;;;;;;2.67;1.80;;;24.80;90.00;;;;;;6178226;23;20468;-96
2021/05/30 12:49:15;;;;;;;2.10;1.85;;;24.60;90.20;;;;;;6176888;23;20400;-94
2021/05/30 12:52:03;;;;;;;3.55;2.50;;;24.50;90.30;;;;;;6153019;23;20028;-94
2021/05/30 12:54:31;;;;;;;3.72;2.40;;;24.10;90.40;;;;;;6175138;23;20021;-95
2021/05/30 12:56:59;;;;;;;;;;;23.80;91.30;;;;;;6176124;23;20021;-95
2021/05/30 12:59:28;;;;;;;2.75;2.40;;;23.60;91.30;;;;;;6174503;23;19974;-90
2021/05/30 13:01:56;;;;;;;3.83;2.15;;;23.30;91.40;;;;;;6176765;23;20465;-95
2021/05/30 13:04:32;;;;;;;4.97;2.33;;;23.20;91.70;;;;;;6176631;23;20416;-95
2021/05/30 13:07:07;;;;;;;3.17;2.17;;;23.10;92.20;;;;;;6175933;23;20021;-95
2021/05/30 13:10:01;;;;;;;3.72;1.90;;;23.00;92.20;;;;;;6176103;23;20076;-93
2021/05/30 13:12:48;;;;;;;3.00;1.80;;;22.80;92.30;;;;;;6174813;23;20045;-95
2021/05/30 13:15:25;;;;;;;3.80;1.67;;;22.80;92.30;;;;;;6175500;23;20021;-96
2021/05/30 13:17:52;;;;;;;2.10;1.88;;;22.80;92.50;;;;;;6175697;23;20515;-96
2021/05/30 13:20:22;;;;;;;2.65;1.80;;;22.80;92.30;;;;;;6151734;23;20096;-96
2021/05/30 13:23:22;;;;;;;2.92;1.90;;;22.80;92.40;;;;;;6152790;23;20025;-96
2021/05/30 13:26:00;;;;;;;3.15;1.98;;;22.90;92.70;;;;;;6141208;23;20026;-96
2021/05/30 13:28:29;;;;;;;1.92;1.73;;;22.90;92.60;;;;;;6175641;23;20072;-95
2021/05/30 13:31:08;;;;;;;2.78;1.40;;;22.90;92.40;;;;;;6177685;23;20444;-95
2021/05/30 13:33:53;;;;;;;3.65;2.00;;;22.90;91.20;;;;;;6157280;23;20866;-90
2021/05/30 13:36:22;;;;;;;4.25;2.20;;;22.80;91.90;;;;;;6173393;23;20055;-85
2021/05/30 13:38:50;;;;;;;2.92;2.00;;;22.70;92.30;;;;;;6151558;23;20068;-81
2021/05/30 13:41:24;;;;;;;2.78;2.00;;;22.70;92.70;;;;;;6150725;23;20022;-81
2021/05/30 13:43:56;;;;;;;4.78;2.20;;;22.70;93.30;;;;;;6148345;23;20037;-86
2021/05/30 13:46:24;;;;;;;3.22;2.17;;;22.80;93.40;;;;;;6170934;23;20018;-86
2021/05/30 13:48:51;;;;;;;3.88;2.22;;;22.80;93.50;;;;;;6166800;23;20313;-87
2021/05/30 13:51:23;;;;;;;4.75;2.38;;;22.80;93.50;;;;;;6146498;23;20072;-87
2021/05/30 13:53:51;;;;;;;3.83;2.35;;;22.70;93.30;;;;;;6173371;23;20469;-88
2021/05/30 13:56:19;;;;;;;4.35;2.33;;;22.70;93.20;;;;;;6174784;23;20021;-89
2021/05/30 13:58:47;;;;;;;3.67;2.67;;;22.70;93.10;;;;;;6149788;23;20017;-87
2021/05/30 14:01:15;;;;;;;5.80;2.42;;;22.60;93.00;;;;;;6173611;23;20531;-87
2021/05/30 14:03:44;;;;;;;3.30;2.10;;;22.70;93.40;;;;;;6148897;23;20022;-87
2021/05/30 14:06:12;;;;;;;4.13;2.13;;;22.60;93.40;;;;;;6173033;23;20029;-86
2021/05/30 14:08:41;;;;;;;4.25;3.85;;;22.60;93.50;;;;;;6150780;23;20017;-88
2021/05/30 14:11:08;;;;;;;1.90;1.80;;;22.70;93.60;;;;;;6173748;23;20085;-89
2021/05/30 14:13:40;;;;;;;2.33;1.88;;;22.60;93.40;;;;;;6151182;23;20029;-89
2021/05/30 14:16:07;;;;;;;5.72;3.75;;;22.60;93.60;;;;;;6152607;23;20425;-89
2021/05/30 14:18:36;;;;;;;13.98;12.05;;;22.40;93.00;;;;;;6176229;23;20014;-87
2021/05/30 14:21:04;;;;;;;7.38;6.68;;;22.40;93.00;;;;;;6152708;23;20069;-89
2021/05/30 14:23:31;;;;;;;3.22;2.53;;;22.50;93.20;;;;;;6153933;23;20022;-89
2021/05/30 14:25:59;;;;;;;5.40;4.45;;;22.40;93.20;;;;;;6152836;23;20021;-89
2021/05/30 14:28:30;;;;;;;2.42;1.60;;;22.40;93.20;;;;;;6178176;23;20082;-89
2021/05/30 14:30:58;;;;;;;3.60;2.88;;;22.50;93.70;;;;;;6151324;23;20022;-88
2021/05/30 14:33:25;;;;;;;4.25;3.00;;;22.40;95.00;;;;;;6176106;23;20075;-88
2021/05/30 14:35:52;;;;;;;4.35;3.35;;;22.30;96.10;;;;;;6179949;23;20017;-88
2021/05/30 14:38:19;;;;;;;4.15;3.25;;;22.30;96.70;;;;;;6178155;23;20029;-88
2021/05/30 14:40:46;;;;;;;5.88;2.60;;;22.40;97.00;;;;;;6178114;23;20476;-89
2021/05/30 14:43:15;;;;;;;3.20;2.65;;;22.30;97.00;;;;;;6178208;23;20060;-89
2021/05/30 14:45:42;;;;;;;3.50;2.50;;;22.30;96.70;;;;;;6158103;23;20022;-89
2021/05/30 14:48:09;;;;;;;4.50;2.50;;;22.30;96.40;;;;;;6178389;23;20034;-89
2021/05/30 14:50:37;;;;;;;3.70;2.22;;;22.20;96.20;;;;;;6152086;23;20045;-88
2021/05/30 14:53:04;;;;;;;4.60;2.10;;;22.20;96.20;;;;;;6151440;23;20040;-86
2021/05/30 14:55:35;;;;;;;4.07;2.58;;;22.20;96.30;;;;;;6175559;23;20056;-87
2021/05/30 14:58:15;;;;;;;3.55;2.20;;;22.20;96.30;;;;;;6174201;23;20519;-89
2021/05/30 15:00:46;;;;;;;3.45;2.20;;;22.20;96.20;;;;;;6174094;23;20052;-89
2021/05/30 15:03:13;;;;;;;2.92;2.30;;;22.10;96.10;;;;;;6151405;23;20469;-88
2021/05/30 15:05:40;;;;;;;2.40;2.08;;;22.20;96.20;;;;;;6153229;23;20017;-88
2021/05/30 15:08:07;;;;;;;4.00;2.20;;;22.30;96.60;;;;;;6175392;23;20088;-88
2021/05/30 15:13:31;;;;;;;3.15;2.40;;;22.50;96.10;;;;;;6139714;23;20010;-88
2021/05/30 15:15:59;;;;;;;3.27;2.10;;;22.50;96.00;;;;;;6154452;23;20017;-88
2021/05/30 15:18:26;;;;;;;4.55;2.47;;;22.50;96.00;;;;;;6155279;23;20017;-88
2021/05/30 15:20:54;;;;;;;4.72;2.30;;;22.50;96.20;;;;;;6155859;23;20030;-89
2021/05/30 15:23:21;;;;;;;4.72;2.70;;;22.60;96.40;;;;;;6153175;23;20072;-88
2021/05/30 15:25:49;;;;;;;3.38;2.55;;;22.60;96.50;;;;;;6177970;23;20018;-88
2021/05/30 15:28:16;;;;;;;3.30;2.30;;;22.60;96.60;;;;;;6155091;23;20025;-89
2021/05/30 15:30:49;;;;;;;4.75;3.42;;;22.70;96.70;;;;;;6177552;23;20025;-88
2021/05/30 15:33:22;;;;;;;3.30;2.50;;;22.70;96.60;;;;;;6177546;23;20022;-88
2021/05/30 15:35:57;;;;;;;2.92;2.20;;;22.80;96.70;;;;;;6154065;23;20393;-89
2021/05/30 15:38:27;;;;;;;5.25;2.50;;;22.80;96.90;;;;;;6178607;23;20056;-90
2021/05/30 15:40:54;;;;;;;6.72;2.75;;;22.80;97.10;;;;;;6180268;23;20021;-89
2021/05/30 15:43:21;;;;;;;5.38;2.92;;;22.80;97.30;;;;;;6179341;23;20396;-90
2021/05/30 15:45:48;;;;;;;5.22;2.83;;;22.80;97.20;;;;;;6153352;23;20069;-89
2021/05/30 15:48:16;;;;;;;3.33;2.30;;;22.90;97.00;;;;;;6155994;23;20043;-89
2021/05/30 15:50:43;;;;;;;4.35;2.50;;;23.00;96.30;;;;;;6179912;23;20014;-90
2021/05/30 15:53:10;;;;;;;2.97;2.08;;;23.10;96.00;;;;;;6179000;23;20026;-90
2021/05/30 15:55:37;;;;;;;4.22;2.67;;;23.20;95.90;;;;;;6179011;23;20017;-88
2021/05/30 15:58:04;;;;;;;4.25;2.40;;;23.40;95.40;;;;;;6178600;23;20072;-90
2021/05/30 16:00:31;;;;;;;2.58;2.28;;;23.40;94.90;;;;;;6155819;23;20021;-91
2021/05/30 16:02:58;;;;;;;4.45;2.50;;;23.40;94.20;;;;;;6177270;23;20021;-88
2021/05/30 16:05:25;;;;;;;5.55;2.65;;;23.30;94.00;;;;;;6153233;23;20025;-88
2021/05/30 16:07:56;;;;;;;3.05;2.40;;;23.20;94.30;;;;;;6178983;23;20072;-89
2021/05/30 16:10:23;;;;;;;4.22;2.40;;;23.30;94.50;;;;;;6154057;23;20029;-89
2021/05/30 16:12:51;;;;;;;3.15;2.60;;;23.30;94.70;;;;;;6154603;23;20036;-89
2021/05/30 16:15:17;;;;;;;5.25;2.60;;;23.30;94.80;;;;;;6176593;23;20350;-87
2021/05/30 16:17:44;;;;;;;3.63;2.40;;;23.40;94.90;;;;;;6176184;23;20017;-86
2021/05/30 16:20:12;;;;;;;7.18;2.38;;;23.50;95.10;;;;;;6152399;23;20017;-88
2021/05/30 16:22:39;;;;;;;3.25;2.33;;;23.70;95.20;;;;;;6152047;23;20461;-88
2021/05/30 16:25:07;;;;;;;4.22;2.50;;;23.90;95.20;;;;;;6151913;23;20029;-89
2021/05/30 16:27:34;;;;;;;7.03;3.10;;;24.00;95.00;;;;;;6151306;23;20076;-87
2021/05/30 16:30:01;;;;;;;3.63;2.67;;;24.00;94.80;;;;;;6175665;23;20017;-87
2021/05/30 16:32:28;;;;;;;4.80;2.40;;;24.00;94.80;;;;;;6149713;23;20080;-87
2021/05/30 16:34:55;;;;;;;3.00;2.25;;;24.00;94.50;;;;;;6175985;23;20021;-87
2021/05/30 16:37:22;;;;;;;5.70;2.60;;;24.00;93.90;;;;;;6150009;23;20025;-87
2021/05/30 16:39:49;;;;;;;3.60;2.53;;;24.10;94.00;;;;;;6152377;23;20017;-87
2021/05/30 16:42:16;;;;;;;4.00;2.55;;;24.30;94.10;;;;;;6174385;23;20068;-87
2021/05/30 16:44:43;;;;;;;4.40;2.60;;;24.40;94.10;;;;;;6174630;23;20021;-89
2021/05/30 16:47:11;;;;;;;4.93;2.30;;;24.50;93.80;;;;;;6150478;23;20354;-88
2021/05/30 16:49:38;;;;;;;5.07;2.40;;;24.50;93.70;;;;;;6175577;23;20036;-87
2021/05/30 16:52:06;;;;;;;5.28;2.60;;;24.40;93.90;;;;;;6151696;23;20076;-89
2021/05/30 16:54:34;;;;;;;2.70;2.42;;;24.30;94.10;;;;;;6175753;23;20356;-89
2021/05/30 16:57:02;;;;;;;6.30;2.95;;;24.40;93.90;;;;;;6174130;23;20030;-87
2021/05/30 16:59:29;;;;;;;4.15;2.75;;;24.40;93.60;;;;;;6174987;23;20436;-88
2021/05/30 17:01:56;;;;;;;5.28;2.60;;;24.30;93.70;;;;;;6150762;23;20434;-88
2021/05/30 17:04:24;;;;;;;4.57;2.58;;;24.30;93.70;;;;;;6175220;23;20033;-88
2021/05/30 17:06:51;;;;;;;3.50;2.38;;;24.20;93.80;;;;;;6150263;23;20322;-87
2021/05/30 17:09:18;;;;;;;5.18;2.58;;;24.00;93.90;;;;;;6148439;23;20469;-88
2021/05/30 17:11:45;;;;;;;5.90;2.63;;;24.00;94.20;;;;;;6173393;23;20084;-89
2021/05/30 17:14:15;;;;;;;3.07;2.37;;;24.10;94.20;;;;;;6151366;23;20457;-87
2021/05/30 17:16:43;;;;;;;5.50;2.30;;;24.10;94.00;;;;;;6173851;23;20021;-87
2021/05/30 17:19:10;;;;;;;4.57;2.33;;;24.30;94.20;;;;;;6150252;23;20030;-86
2021/05/30 17:21:37;;;;;;;5.63;2.50;;;24.40;94.10;;;;;;6151234;23;20100;-89
2021/05/30 17:24:05;;;;;;;3.95;2.20;;;24.50;93.70;;;;;;6151166;23;20091;-88
2021/05/30 17:26:32;;;;;;;4.77;2.53;;;24.40;93.80;;;;;;6150336;23;20080;-88
2021/05/30 17:28:59;;;;;;;5.47;3.42;;;24.30;94.00;;;;;;6174988;23;20025;-87
2021/05/30 17:31:26;;;;;;;6.28;3.92;;;24.20;93.60;;;;;;6151906;23;20028;-87
2021/05/30 17:33:53;;;;;;;6.43;5.55;;;24.30;92.50;;;;;;6173710;23;20013;-89
2021/05/30 17:36:20;;;;;;;10.88;7.15;;;24.30;92.70;;;;;;6151818;23;20032;-87
2021/05/30 17:38:47;;;;;;;3.60;1.63;;;24.30;92.00;;;;;;6150463;23;20053;-90
2021/05/30 17:41:16;;;;;;;3.83;1.85;;;24.30;91.70;;;;;;6150212;23;20101;-90
2021/05/30 17:43:45;;;;;;;3.90;2.05;;;24.40;91.90;;;;;;6152733;23;20018;-89
2021/05/30 17:46:13;;;;;;;3.05;2.00;;;24.30;92.20;;;;;;6174614;23;20029;-88
2021/05/30 17:48:40;;;;;;;4.57;2.05;;;24.30;92.70;;;;;;6175452;23;20022;-85
2021/05/30 17:51:08;;;;;;;5.25;2.10;;;24.30;92.80;;;;;;6172131;23;20017;-87
2021/05/30 17:53:36;;;;;;;3.38;1.83;;;24.40;92.70;;;;;;6150029;23;20048;-87
2021/05/30 17:56:05;;;;;;;3.13;1.80;;;24.30;92.30;;;;;;6152889;23;20072;-87
2021/05/30 17:58:32;;;;;;;3.28;1.80;;;24.30;92.10;;;;;;6175646;23;20021;-87
2021/05/30 18:00:59;;;;;;;2.53;1.98;;;24.30;92.10;;;;;;6175523;23;20014;-87
2021/05/30 18:03:27;;;;;;;2.40;1.80;;;24.30;92.10;;;;;;6174777;23;20024;-87
2021/05/30 18:06:14;;;;;;;3.78;1.60;;;24.20;91.80;;;;;;6150892;23;20088;-87
2021/05/30 18:08:42;;;;;;;4.47;3.40;;;24.10;91.60;;;;;;6175277;23;20096;-86
2021/05/30 18:11:09;;;;;;;4.32;2.80;;;24.10;91.60;;;;;;6175165;23;20017;-86
2021/05/30 18:13:38;;;;;;;1.70;1.60;;;24.10;91.20;;;;;;6151108;23;20021;-87
2021/05/30 18:16:06;;;;;;;2.90;1.60;;;24.30;90.80;;;;;;6151152;23;20032;-87
2021/05/30 18:18:33;;;;;;;;;;;24.30;90.60;;;;;;6175728;23;20353;-87
2021/05/30 18:21:02;;;;;;;12.38;10.50;;;24.40;89.60;;;;;;6175481;23;19940;-87
2021/05/30 18:23:29;;;;;;;6.75;4.63;;;24.90;89.90;;;;;;6150558;23;20022;-86
2021/05/30 18:25:57;;;;;;;2.60;1.77;;;25.60;89.00;;;;;;6176159;23;20029;-87
2021/05/30 18:28:25;;;;;;;2.92;2.10;;;26.30;87.20;;;;;;6175050;23;20076;-86
2021/05/30 18:30:54;;;;;;;3.80;2.28;;;26.70;86.20;;;;;;6150190;23;20405;-88
2021/05/30 18:33:22;;;;;;;5.20;2.30;;;27.30;85.20;;;;;;6151491;23;20461;-87
2021/05/30 18:35:49;;;;;;;;;;;27.60;83.90;;;;;;6152870;23;20068;-88
2021/05/30 18:38:16;;;;;;;3.90;2.50;;;27.80;82.40;;;;;;6152271;23;19963;-87
2021/05/30 18:40:45;;;;;;;5.20;2.70;;;27.90;83.10;;;;;;6174213;23;20100;-86
2021/05/30 18:43:12;;;;;;;;;;;28.10;82.60;;;;;;6177414;23;20034;-88
2021/05/30 18:45:40;;;;;;;3.63;2.72;;;28.40;81.70;;;;;;6155126;23;19924;-87
2021/05/30 18:48:09;;;;;;;4.35;2.97;;;28.40;82.50;;;;;;6174612;23;20037;-88
2021/05/30 18:50:40;;;;;;;5.18;2.95;;;28.70;81.90;;;;;;6175475;23;20068;-87
2021/05/30 18:53:09;;;;;;;4.10;3.10;;;28.80;82.00;;;;;;6174751;23;20022;-88
2021/05/30 18:55:36;;;;;;;7.75;3.10;;;28.70;81.60;;;;;;6151214;23;20018;-86
2021/05/30 18:58:04;;;;;;;3.80;3.10;;;28.80;81.60;;;;;;6174770;23;20026;-87
2021/05/30 19:00:32;;;;;;;7.35;3.60;;;28.70;81.30;;;;;;6174864;23;20483;-86
2021/05/30 19:02:59;;;;;;;5.07;3.53;;;28.70;81.40;;;;;;6151122;23;20025;-88
2021/05/30 19:05:27;;;;;;;4.50;3.50;;;28.60;81.00;;;;;;6175068;23;20060;-88
2021/05/30 19:07:54;;;;;;;5.85;4.00;;;28.60;80.80;;;;;;6175526;23;20454;-87
2021/05/30 19:10:21;;;;;;;4.97;3.47;;;28.60;81.00;;;;;;6152585;23;20025;-87
2021/05/30 19:12:48;;;;;;;6.57;3.88;;;28.70;80.80;;;;;;6175649;23;20092;-88
2021/05/30 19:15:15;;;;;;;6.38;3.90;;;28.50;80.40;;;;;;6149889;23;20084;-87
2021/05/30 19:17:44;;;;;;;5.68;3.60;;;28.30;80.30;;;;;;6150903;23;20021;-87
2021/05/30 19:20:13;;;;;;;6.15;3.72;;;28.00;80.40;;;;;;6149658;23;20030;-88
2021/05/30 19:22:42;;;;;;;8.35;4.13;;;27.40;80.70;;;;;;6175918;23;20056;-88
2021/05/30 19:25:10;;;;;;;6.60;4.22;;;26.70;81.20;;;;;;6149651;23;20025;-88
2021/05/30 19:27:37;;;;;;;6.83;4.40;;;26.00;82.00;;;;;;6151900;23;20022;-88
2021/05/30 19:30:06;;;;;;;6.75;4.35;;;25.20;82.90;;;;;;6176211;23;20022;-89
2021/05/30 19:32:33;;;;;;;9.05;4.50;;;24.50;83.90;;;;;;6174246;23;20422;-89
2021/05/30 19:35:00;;;;;;;5.13;4.20;;;23.90;85.20;;;;;;6152139;23;20025;-90
2021/05/30 19:37:28;;;;;;;7.72;4.80;;;23.40;86.30;;;;;;6173955;23;20072;-86
2021/05/30 19:39:55;;;;;;;7.32;4.45;;;22.90;87.10;;;;;;6175027;23;20476;-88
2021/05/30 19:42:22;;;;;;;5.53;4.70;;;22.60;87.90;;;;;;6176384;23;20030;-87
2021/05/30 19:44:49;;;;;;;6.22;4.93;;;22.20;88.70;;;;;;6175664;23;20468;-89
2021/05/30 19:47:20;;;;;;;6.40;4.60;;;21.90;89.50;;;;;;6175257;23;20104;-88
2021/05/30 19:49:47;;;;;;;5.75;4.35;;;21.60;90.10;;;;;;6153450;23;20017;-87
2021/05/30 19:52:14;;;;;;;4.65;4.15;;;21.30;90.40;;;;;;6150267;23;20025;-88
2021/05/30 19:54:45;;;;;;;8.35;4.50;;;21.10;90.80;;;;;;6175278;23;20084;-87
2021/05/30 19:57:12;;;;;;;7.15;4.63;;;21.00;91.10;;;;;;6150932;23;20036;-87
2021/05/30 19:59:39;;;;;;;6.38;4.68;;;20.80;91.40;;;;;;6175880;23;20345;-88
2021/05/30 20:02:07;;;;;;;6.38;5.00;;;20.60;91.60;;;;;;6151378;23;20021;-89
2021/05/30 20:04:35;;;;;;;6.53;5.05;;;20.40;92.00;;;;;;6154011;23;20049;-90
2021/05/30 20:07:04;;;;;;;5.43;4.90;;;20.20;92.30;;;;;;6175662;23;20080;-89
2021/05/30 20:09:32;;;;;;;6.82;5.25;;;20.00;92.40;;;;;;6153624;23;20024;-87
2021/05/30 20:12:00;;;;;;;5.60;4.53;;;19.80;92.60;;;;;;6152145;23;20017;-89
2021/05/30 20:14:28;;;;;;;6.82;4.95;;;19.70;92.80;;;;;;6152895;23;20457;-88
2021/05/30 20:16:56;;;;;;;7.75;5.03;;;19.50;93.00;;;;;;6152510;23;20053;-88
2021/05/30 20:19:24;;;;;;;7.70;5.07;;;19.40;93.10;;;;;;6175441;23;20025;-88
2021/05/30 20:21:51;;;;;;;8.63;5.40;;;19.30;93.40;;;;;;6175615;23;20017;-88
2021/05/30 20:24:21;;;;;;;7.32;5.28;;;19.10;93.60;;;;;;6175560;23;20088;-90
2021/05/30 20:26:58;;;;;;;8.25;5.65;;;19.00;93.70;;;;;;6175830;23;20021;-90
2021/05/30 20:29:26;;;;;;;9.00;5.40;;;18.90;93.80;;;;;;6153717;23;20080;-90
2021/05/30 20:31:56;;;;;;;7.35;5.72;;;18.80;93.90;;;;;;6176834;23;20025;-88
2021/05/30 20:34:29;;;;;;;9.27;6.22;;;18.70;94.00;;;;;;6177565;23;20021;-89
2021/05/30 20:36:58;;;;;;;7.22;5.85;;;18.60;94.10;;;;;;6178911;23;20092;-88
2021/05/30 20:39:25;;;;;;;9.48;5.97;;;18.50;94.30;;;;;;6176121;23;20072;-88
2021/05/30 20:41:52;;;;;;;8.68;6.55;;;18.40;94.50;;;;;;6155774;23;20548;-88